createdAt,value
2022-11-04T07:32:08.368Z,6.00
2022-11-04T07:34:35.354Z,5.85
2022-11-04T07:37:02.420Z,4.90
2022-11-04T07:39:29.449Z,5.10
2022-11-04T07:41:59.508Z,4.63
2022-11-04T07:44:26.937Z,4.47
2022-11-04T07:46:54.055Z,6.45
2022-11-04T07:49:21.130Z,6.40
2022-11-04T07:51:48.619Z,5.05
2022-11-04T07:54:15.690Z,7.10
2022-11-04T07:56:42.661Z,5.88
2022-11-04T07:59:11.238Z,11.68
2022-11-04T08:01:40.350Z,7.25
2022-11-04T08:04:07.850Z,17.77
2022-11-04T08:06:34.943Z,9.40
2022-11-04T08:09:02.105Z,7.47
2022-11-04T08:11:29.264Z,5.38
2022-11-04T08:13:56.388Z,7.57
2022-11-04T08:16:25.310Z,12.65
2022-11-04T08:18:53.936Z,7.43
2022-11-04T08:21:21.450Z,9.60
2022-11-04T08:23:51.303Z,6.28
2022-11-04T08:26:19.168Z,6.15
2022-11-04T08:28:46.721Z,4.60
2022-11-04T08:31:19.845Z,7.03
2022-11-04T08:33:47.947Z,6.72
2022-11-04T08:36:16.749Z,6.33
2022-11-04T08:38:45.433Z,6.05
2022-11-04T08:41:14.228Z,4.20
2022-11-04T08:43:41.368Z,4.03
2022-11-04T08:46:09.269Z,3.78
2022-11-04T08:48:37.496Z,4.93
2022-11-04T08:51:05.329Z,6.37
2022-11-04T08:53:32.381Z,6.20
2022-11-04T08:55:59.492Z,7.63
2022-11-04T08:58:26.499Z,8.35
2022-11-04T09:00:53.594Z,4.20
2022-11-04T09:03:21.023Z,6.17
2022-11-04T09:05:49.122Z,6.43
2022-11-04T09:08:17.176Z,6.03
2022-11-04T09:10:45.204Z,4.72
2022-11-04T09:13:12.996Z,8.63
2022-11-04T09:15:40.400Z,6.18
2022-11-04T09:18:07.717Z,9.43
2022-11-04T09:20:38.306Z,7.60
2022-11-04T09:23:05.818Z,7.15
2022-11-04T09:25:33.130Z,7.78
2022-11-04T09:28:03.719Z,6.75
2022-11-04T09:30:31.008Z,5.95
2022-11-04T09:32:58.543Z,10.70
2022-11-04T09:35:27.559Z,6.43
2022-11-04T09:37:54.959Z,7.22
2022-11-04T09:40:23.252Z,7.75
2022-11-04T09:42:53.392Z,7.03
2022-11-04T09:45:23.731Z,5.47
2022-11-04T09:47:52.974Z,4.73
2022-11-04T09:50:31.667Z,9.02
2022-11-04T09:53:04.875Z,6.32
2022-11-04T09:55:35.837Z,5.53
2022-11-04T09:58:04.347Z,8.23
2022-11-04T10:00:32.438Z,6.28
2022-11-04T10:03:09.060Z,6.57
2022-11-04T10:05:55.199Z,7.53
2022-11-04T10:08:37.911Z,8.13
2022-11-04T10:11:06.575Z,9.43
2022-11-04T10:13:52.626Z,7.07
2022-11-04T10:16:26.253Z,9.97
2022-11-04T10:19:05.926Z,9.35
2022-11-04T10:21:33.011Z,6.60
2022-11-04T10:24:00.003Z,10.30
2022-11-04T10:26:36.204Z,7.47
2022-11-04T10:29:07.613Z,6.95
2022-11-04T10:31:37.779Z,7.43
2022-11-04T10:34:21.406Z,8.00
2022-11-04T10:36:49.290Z,8.55
2022-11-04T10:39:27.869Z,10.97
2022-11-04T10:41:55.107Z,12.18
2022-11-04T10:44:27.087Z,6.20
2022-11-04T10:46:54.102Z,6.53
2022-11-04T10:49:39.746Z,8.95
2022-11-04T10:52:07.833Z,8.63
2022-11-04T10:54:39.756Z,4.53
2022-11-04T10:57:06.794Z,8.80
2022-11-04T10:59:49.351Z,9.00
2022-11-04T11:02:16.542Z,5.47
2022-11-04T11:04:45.437Z,9.98
2022-11-04T11:07:13.331Z,13.60
2022-11-04T11:09:43.365Z,13.57
2022-11-04T11:12:44.052Z,13.65
2022-11-04T11:15:00.464Z,15.32
2022-11-04T11:17:33.653Z,9.32
2022-11-04T11:20:06.030Z,15.38
2022-11-04T11:22:38.286Z,15.80
2022-11-04T11:25:24.235Z,15.32
2022-11-04T11:28:02.022Z,26.00
2022-11-04T11:30:31.999Z,20.05
2022-11-04T11:33:03.923Z,22.55
2022-11-04T11:35:41.253Z,10.52
2022-11-04T11:38:34.603Z,11.63
2022-11-04T11:41:24.317Z,11.73
2022-11-04T11:43:52.700Z,12.32
2022-11-04T11:46:23.233Z,13.00
2022-11-04T11:48:54.871Z,12.88
2022-11-04T11:51:30.716Z,12.90
2022-11-04T11:54:19.167Z,9.90
2022-11-04T11:57:12.611Z,11.00
2022-11-04T12:02:35.198Z,10.25
2022-11-04T12:10:56.645Z,9.45
2022-11-04T12:13:29.424Z,8.05
2022-11-04T12:16:21.085Z,24.00
2022-11-04T12:18:48.203Z,13.98
2022-11-04T12:21:27.034Z,12.73
2022-11-04T12:24:02.093Z,23.80
2022-11-04T12:26:41.442Z,15.55
2022-11-04T12:29:21.204Z,14.15
2022-11-04T12:32:07.733Z,13.65
2022-11-04T12:34:52.929Z,14.13
2022-11-04T12:37:26.459Z,15.43
2022-11-04T12:40:08.179Z,14.95
2022-11-04T12:42:38.212Z,16.75
2022-11-04T12:45:25.033Z,12.15
2022-11-04T12:47:54.121Z,12.60
2022-11-04T12:50:38.266Z,9.70
2022-11-04T12:53:08.640Z,16.52
2022-11-04T12:55:43.969Z,12.02
2022-11-04T12:58:17.327Z,16.40
2022-11-04T13:00:45.772Z,16.27
2022-11-04T13:03:18.562Z,17.73
2022-11-04T13:05:54.642Z,14.65
2022-11-04T13:08:43.667Z,10.98
2022-11-04T13:11:30.947Z,15.43
2022-11-04T13:14:01.766Z,12.80
2022-11-04T13:16:30.077Z,8.70
2022-11-04T13:18:59.914Z,5.50
2022-11-04T13:21:31.474Z,8.68
2022-11-04T13:24:06.712Z,8.38
2022-11-04T13:26:34.129Z,11.82
2022-11-04T13:29:27.656Z,13.15
2022-11-04T13:31:54.720Z,14.90
2022-11-04T13:34:45.190Z,5.43
2022-11-04T13:37:31.134Z,9.95
2022-11-04T13:40:01.509Z,19.67
2022-11-04T13:42:51.881Z,107.40
2022-11-04T13:45:20.450Z,159.88
2022-11-04T13:47:53.328Z,80.47
2022-11-04T13:50:29.742Z,66.68
2022-11-04T13:52:56.822Z,69.75
2022-11-04T13:55:23.859Z,76.45
2022-11-04T13:57:58.918Z,75.32
2022-11-04T14:00:26.955Z,77.30
2022-11-04T14:03:02.463Z,58.55
2022-11-04T14:05:31.061Z,49.92
2022-11-04T14:08:00.991Z,46.10
2022-11-04T14:10:38.595Z,50.05
